sensor_id;sensor_type;location;lat;lon;timestamp;P1;durP1;ratioP1;P2;durP2;ratioP2
6987;SDS011;3534;49.960;8.018;2024-02-23T00:01:39;2.43;;;0.80;;
6987;SDS011;3534;49.960;8.018;2024-02-23T00:04:06;2.93;;;0.90;;
6987;SDS011;3534;49.960;8.018;2024-02-23T00:06:34;2.40;;;0.90;;
6987;SDS011;3534;49.960;8.018;2024-02-23T00:09:01;1.13;;;0.60;;
6987;SDS011;3534;49.960;8.018;2024-02-23T00:11:28;3.97;;;1.00;;
6987;SDS011;3534;49.960;8.018;2024-02-23T00:13:55;1.23;;;0.70;;
6987;SDS011;3534;49.960;8.018;2024-02-23T00:16:22;6.93;;;0.93;;
6987;SDS011;3534;49.960;8.018;2024-02-23T00:18:48;2.13;;;0.90;;
6987;SDS011;3534;49.960;8.018;2024-02-23T00:21:15;2.97;;;1.07;;
6987;SDS011;3534;49.960;8.018;2024-02-23T00:23:43;0.70;;;0.40;;
6987;SDS011;3534;49.960;8.018;2024-02-23T00:26:10;3.30;;;0.80;;
6987;SDS011;3534;49.960;8.018;2024-02-23T00:28:37;2.80;;;0.80;;
6987;SDS011;3534;49.960;8.018;2024-02-23T00:31:03;2.90;;;0.70;;
6987;SDS011;3534;49.960;8.018;2024-02-23T00:33:30;1.03;;;0.63;;
6987;SDS011;3534;49.960;8.018;2024-02-23T00:35:57;1.10;;;0.77;;
6987;SDS011;3534;49.960;8.018;2024-02-23T00:38:24;5.67;;;0.90;;
6987;SDS011;3534;49.960;8.018;2024-02-23T00:40:52;4.27;;;0.70;;
6987;SDS011;3534;49.960;8.018;2024-02-23T00:43:19;2.73;;;0.70;;
6987;SDS011;3534;49.960;8.018;2024-02-23T00:45:45;3.00;;;0.90;;
6987;SDS011;3534;49.960;8.018;2024-02-23T00:48:12;4.20;;;0.90;;
6987;SDS011;3534;49.960;8.018;2024-02-23T00:50:39;4.17;;;1.03;;
6987;SDS011;3534;49.960;8.018;2024-02-23T00:53:05;1.73;;;0.80;;
6987;SDS011;3534;49.960;8.018;2024-02-23T00:55:32;1.30;;;0.90;;
6987;SDS011;3534;49.960;8.018;2024-02-23T00:58:00;2.80;;;0.93;;
6987;SDS011;3534;49.960;8.018;2024-02-23T01:00:28;0.70;;;0.60;;
6987;SDS011;3534;49.960;8.018;2024-02-23T01:02:55;2.30;;;1.07;;
6987;SDS011;3534;49.960;8.018;2024-02-23T01:05:24;2.93;;;1.13;;
6987;SDS011;3534;49.960;8.018;2024-02-23T01:07:50;1.13;;;0.70;;
6987;SDS011;3534;49.960;8.018;2024-02-23T01:10:17;1.73;;;0.50;;
6987;SDS011;3534;49.960;8.018;2024-02-23T01:12:44;1.03;;;0.60;;
6987;SDS011;3534;49.960;8.018;2024-02-23T01:15:12;2.13;;;0.83;;
6987;SDS011;3534;49.960;8.018;2024-02-23T01:17:39;1.60;;;0.70;;
6987;SDS011;3534;49.960;8.018;2024-02-23T01:20:06;0.90;;;0.50;;
6987;SDS011;3534;49.960;8.018;2024-02-23T01:22:33;0.93;;;0.40;;
6987;SDS011;3534;49.960;8.018;2024-02-23T01:25:00;2.10;;;0.70;;
6987;SDS011;3534;49.960;8.018;2024-02-23T01:27:27;3.33;;;0.63;;
6987;SDS011;3534;49.960;8.018;2024-02-23T01:29:53;2.83;;;0.60;;
6987;SDS011;3534;49.960;8.018;2024-02-23T01:32:21;1.77;;;0.60;;
6987;SDS011;3534;49.960;8.018;2024-02-23T01:34:48;2.80;;;0.77;;
6987;SDS011;3534;49.960;8.018;2024-02-23T01:37:15;1.67;;;0.40;;
6987;SDS011;3534;49.960;8.018;2024-02-23T01:39:42;0.60;;;0.47;;
6987;SDS011;3534;49.960;8.018;2024-02-23T01:42:08;0.70;;;0.50;;
6987;SDS011;3534;49.960;8.018;2024-02-23T01:44:35;1.00;;;0.60;;
6987;SDS011;3534;49.960;8.018;2024-02-23T01:47:02;1.10;;;0.60;;
6987;SDS011;3534;49.960;8.018;2024-02-23T01:49:30;0.80;;;0.47;;
6987;SDS011;3534;49.960;8.018;2024-02-23T01:51:58;1.67;;;0.53;;
6987;SDS011;3534;49.960;8.018;2024-02-23T01:54:26;2.30;;;0.60;;
6987;SDS011;3534;49.960;8.018;2024-02-23T01:56:54;3.47;;;0.87;;
6987;SDS011;3534;49.960;8.018;2024-02-23T01:59:22;0.80;;;0.67;;
6987;SDS011;3534;49.960;8.018;2024-02-23T02:01:49;1.00;;;0.50;;
6987;SDS011;3534;49.960;8.018;2024-02-23T02:04:16;1.10;;;0.50;;
6987;SDS011;3534;49.960;8.018;2024-02-23T02:06:44;2.73;;;0.53;;
6987;SDS011;3534;49.960;8.018;2024-02-23T02:09:12;0.70;;;0.53;;
6987;SDS011;3534;49.960;8.018;2024-02-23T02:11:44;1.97;;;0.70;;
6987;SDS011;3534;49.960;8.018;2024-02-23T02:14:12;4.00;;;0.90;;
6987;SDS011;3534;49.960;8.018;2024-02-23T02:16:38;1.33;;;0.50;;
6987;SDS011;3534;49.960;8.018;2024-02-23T02:19:05;3.33;;;1.70;;
6987;SDS011;3534;49.960;8.018;2024-02-23T02:21:32;11.03;;;1.97;;
6987;SDS011;3534;49.960;8.018;2024-02-23T02:24:00;5.50;;;2.00;;
6987;SDS011;3534;49.960;8.018;2024-02-23T02:26:28;3.53;;;1.00;;
6987;SDS011;3534;49.960;8.018;2024-02-23T02:28:54;2.40;;;0.70;;
6987;SDS011;3534;49.960;8.018;2024-02-23T02:31:21;1.90;;;0.90;;
6987;SDS011;3534;49.960;8.018;2024-02-23T02:33:47;2.97;;;0.60;;
6987;SDS011;3534;49.960;8.018;2024-02-23T02:36:14;2.10;;;0.63;;
6987;SDS011;3534;49.960;8.018;2024-02-23T02:38:41;2.23;;;1.40;;
6987;SDS011;3534;49.960;8.018;2024-02-23T02:41:09;1.70;;;0.50;;
6987;SDS011;3534;49.960;8.018;2024-02-23T02:43:36;3.00;;;0.70;;
6987;SDS011;3534;49.960;8.018;2024-02-23T02:46:03;1.50;;;0.60;;
6987;SDS011;3534;49.960;8.018;2024-02-23T02:48:29;2.70;;;0.87;;
6987;SDS011;3534;49.960;8.018;2024-02-23T02:50:56;2.00;;;0.87;;
6987;SDS011;3534;49.960;8.018;2024-02-23T02:53:23;2.03;;;0.70;;
6987;SDS011;3534;49.960;8.018;2024-02-23T02:55:49;3.20;;;0.80;;
6987;SDS011;3534;49.960;8.018;2024-02-23T02:58:17;2.70;;;0.70;;
6987;SDS011;3534;49.960;8.018;2024-02-23T03:00:44;1.83;;;0.80;;
6987;SDS011;3534;49.960;8.018;2024-02-23T03:03:10;3.80;;;0.80;;
6987;SDS011;3534;49.960;8.018;2024-02-23T03:05:38;5.70;;;0.70;;
6987;SDS011;3534;49.960;8.018;2024-02-23T03:08:05;3.27;;;0.70;;
6987;SDS011;3534;49.960;8.018;2024-02-23T03:10:32;4.43;;;0.80;;
6987;SDS011;3534;49.960;8.018;2024-02-23T03:12:59;2.00;;;0.60;;
6987;SDS011;3534;49.960;8.018;2024-02-23T03:15:27;1.77;;;0.60;;
6987;SDS011;3534;49.960;8.018;2024-02-23T03:17:54;2.17;;;1.23;;
6987;SDS011;3534;49.960;8.018;2024-02-23T03:20:22;1.83;;;0.90;;
6987;SDS011;3534;49.960;8.018;2024-02-23T03:22:49;2.17;;;0.70;;
6987;SDS011;3534;49.960;8.018;2024-02-23T03:25:15;2.30;;;0.93;;
6987;SDS011;3534;49.960;8.018;2024-02-23T03:27:42;0.70;;;0.50;;
6987;SDS011;3534;49.960;8.018;2024-02-23T03:30:09;5.33;;;0.53;;
6987;SDS011;3534;49.960;8.018;2024-02-23T03:32:37;1.57;;;0.63;;
6987;SDS011;3534;49.960;8.018;2024-02-23T03:35:05;3.70;;;0.93;;
6987;SDS011;3534;49.960;8.018;2024-02-23T03:37:33;5.13;;;1.50;;
6987;SDS011;3534;49.960;8.018;2024-02-23T03:39:59;1.90;;;0.80;;
6987;SDS011;3534;49.960;8.018;2024-02-23T03:42:26;3.80;;;1.30;;
6987;SDS011;3534;49.960;8.018;2024-02-23T03:44:53;1.70;;;0.70;;
6987;SDS011;3534;49.960;8.018;2024-02-23T03:47:20;1.10;;;0.67;;
6987;SDS011;3534;49.960;8.018;2024-02-23T03:49:48;1.67;;;0.60;;
6987;SDS011;3534;49.960;8.018;2024-02-23T03:52:15;3.23;;;0.70;;
6987;SDS011;3534;49.960;8.018;2024-02-23T03:54:41;1.77;;;0.93;;
6987;SDS011;3534;49.960;8.018;2024-02-23T03:57:08;4.47;;;1.03;;
6987;SDS011;3534;49.960;8.018;2024-02-23T03:59:35;4.50;;;0.90;;
6987;SDS011;3534;49.960;8.018;2024-02-23T04:02:03;3.47;;;1.03;;
6987;SDS011;3534;49.960;8.018;2024-02-23T04:04:30;3.27;;;0.80;;
6987;SDS011;3534;49.960;8.018;2024-02-23T04:06:58;1.60;;;0.87;;
6987;SDS011;3534;49.960;8.018;2024-02-23T04:09:24;1.23;;;0.73;;
6987;SDS011;3534;49.960;8.018;2024-02-23T04:11:51;2.60;;;0.73;;
6987;SDS011;3534;49.960;8.018;2024-02-23T04:14:18;3.13;;;1.03;;
6987;SDS011;3534;49.960;8.018;2024-02-23T04:16:45;5.90;;;0.80;;
6987;SDS011;3534;49.960;8.018;2024-02-23T04:19:11;1.63;;;0.90;;
6987;SDS011;3534;49.960;8.018;2024-02-23T04:21:38;5.03;;;1.20;;
6987;SDS011;3534;49.960;8.018;2024-02-23T04:24:06;6.63;;;1.10;;
6987;SDS011;3534;49.960;8.018;2024-02-23T04:26:33;4.97;;;0.90;;
6987;SDS011;3534;49.960;8.018;2024-02-23T04:29:00;3.40;;;1.60;;
6987;SDS011;3534;49.960;8.018;2024-02-23T04:31:27;1.97;;;1.10;;
6987;SDS011;3534;49.960;8.018;2024-02-23T04:33:53;0.97;;;0.60;;
6987;SDS011;3534;49.960;8.018;2024-02-23T04:36:20;4.57;;;1.57;;
6987;SDS011;3534;49.960;8.018;2024-02-23T04:38:47;3.40;;;1.17;;
6987;SDS011;3534;49.960;8.018;2024-02-23T04:41:18;3.60;;;1.20;;
6987;SDS011;3534;49.960;8.018;2024-02-23T04:43:46;11.03;;;1.50;;
6987;SDS011;3534;49.960;8.018;2024-02-23T04:46:13;4.37;;;1.30;;
6987;SDS011;3534;49.960;8.018;2024-02-23T04:48:40;2.90;;;1.43;;
6987;SDS011;3534;49.960;8.018;2024-02-23T04:51:07;2.77;;;1.20;;
6987;SDS011;3534;49.960;8.018;2024-02-23T04:53:36;4.53;;;1.00;;
6987;SDS011;3534;49.960;8.018;2024-02-23T04:56:03;1.53;;;0.93;;
6987;SDS011;3534;49.960;8.018;2024-02-23T04:58:31;6.77;;;1.00;;
6987;SDS011;3534;49.960;8.018;2024-02-23T05:00:58;2.80;;;1.00;;
6987;SDS011;3534;49.960;8.018;2024-02-23T05:03:25;2.20;;;1.20;;
6987;SDS011;3534;49.960;8.018;2024-02-23T05:05:52;3.83;;;1.70;;
6987;SDS011;3534;49.960;8.018;2024-02-23T05:08:19;3.97;;;1.60;;
6987;SDS011;3534;49.960;8.018;2024-02-23T05:10:46;9.37;;;1.50;;
6987;SDS011;3534;49.960;8.018;2024-02-23T05:13:13;7.43;;;2.37;;
6987;SDS011;3534;49.960;8.018;2024-02-23T05:15:41;4.67;;;1.33;;
6987;SDS011;3534;49.960;8.018;2024-02-23T05:18:08;1.40;;;0.87;;
6987;SDS011;3534;49.960;8.018;2024-02-23T05:20:34;7.37;;;1.17;;
6987;SDS011;3534;49.960;8.018;2024-02-23T05:23:01;1.80;;;0.87;;
6987;SDS011;3534;49.960;8.018;2024-02-23T05:25:28;2.77;;;1.00;;
6987;SDS011;3534;49.960;8.018;2024-02-23T05:27:54;1.80;;;0.80;;
6987;SDS011;3534;49.960;8.018;2024-02-23T05:30:21;4.43;;;1.10;;
6987;SDS011;3534;49.960;8.018;2024-02-23T05:32:50;4.87;;;1.00;;
6987;SDS011;3534;49.960;8.018;2024-02-23T05:35:16;2.27;;;0.90;;
6987;SDS011;3534;49.960;8.018;2024-02-23T05:37:43;2.80;;;0.93;;
6987;SDS011;3534;49.960;8.018;2024-02-23T05:40:10;7.80;;;1.00;;
6987;SDS011;3534;49.960;8.018;2024-02-23T05:42:37;4.60;;;1.53;;
6987;SDS011;3534;49.960;8.018;2024-02-23T05:45:04;1.43;;;0.70;;
6987;SDS011;3534;49.960;8.018;2024-02-23T05:47:34;1.80;;;0.70;;
6987;SDS011;3534;49.960;8.018;2024-02-23T05:50:02;8.87;;;1.33;;
6987;SDS011;3534;49.960;8.018;2024-02-23T05:52:29;3.60;;;1.20;;
6987;SDS011;3534;49.960;8.018;2024-02-23T05:54:57;4.47;;;1.30;;
6987;SDS011;3534;49.960;8.018;2024-02-23T05:57:25;3.50;;;1.30;;
6987;SDS011;3534;49.960;8.018;2024-02-23T05:59:51;5.83;;;1.30;;
6987;SDS011;3534;49.960;8.018;2024-02-23T06:02:18;1.40;;;1.03;;
6987;SDS011;3534;49.960;8.018;2024-02-23T06:04:45;2.90;;;0.80;;
6987;SDS011;3534;49.960;8.018;2024-02-23T06:07:13;3.80;;;1.57;;
6987;SDS011;3534;49.960;8.018;2024-02-23T06:09:41;2.90;;;1.30;;
6987;SDS011;3534;49.960;8.018;2024-02-23T06:12:08;3.23;;;1.20;;
6987;SDS011;3534;49.960;8.018;2024-02-23T06:14:35;5.43;;;1.30;;
6987;SDS011;3534;49.960;8.018;2024-02-23T06:17:01;2.50;;;1.30;;
6987;SDS011;3534;49.960;8.018;2024-02-23T06:19:29;9.70;;;1.77;;
6987;SDS011;3534;49.960;8.018;2024-02-23T06:21:55;8.70;;;1.90;;
6987;SDS011;3534;49.960;8.018;2024-02-23T06:24:23;7.03;;;2.90;;
6987;SDS011;3534;49.960;8.018;2024-02-23T06:26:50;2.40;;;1.80;;
6987;SDS011;3534;49.960;8.018;2024-02-23T06:29:17;2.10;;;1.30;;
6987;SDS011;3534;49.960;8.018;2024-02-23T06:31:44;4.00;;;1.47;;
6987;SDS011;3534;49.960;8.018;2024-02-23T06:34:14;2.90;;;1.80;;
6987;SDS011;3534;49.960;8.018;2024-02-23T06:36:40;3.70;;;1.87;;
6987;SDS011;3534;49.960;8.018;2024-02-23T06:39:07;7.87;;;2.03;;
6987;SDS011;3534;49.960;8.018;2024-02-23T06:41:35;4.60;;;1.53;;
6987;SDS011;3534;49.960;8.018;2024-02-23T06:44:03;4.03;;;1.23;;
6987;SDS011;3534;49.960;8.018;2024-02-23T06:46:30;2.00;;;1.53;;
6987;SDS011;3534;49.960;8.018;2024-02-23T06:48:57;2.23;;;1.17;;
6987;SDS011;3534;49.960;8.018;2024-02-23T06:51:24;8.83;;;1.50;;
6987;SDS011;3534;49.960;8.018;2024-02-23T06:53:51;5.00;;;1.30;;
6987;SDS011;3534;49.960;8.018;2024-02-23T06:56:17;4.23;;;1.10;;
6987;SDS011;3534;49.960;8.018;2024-02-23T06:58:45;3.20;;;1.43;;
6987;SDS011;3534;49.960;8.018;2024-02-23T07:01:12;3.83;;;1.70;;
6987;SDS011;3534;49.960;8.018;2024-02-23T07:03:39;5.83;;;1.90;;
6987;SDS011;3534;49.960;8.018;2024-02-23T07:06:07;3.70;;;1.57;;
6987;SDS011;3534;49.960;8.018;2024-02-23T07:08:35;3.30;;;1.87;;
6987;SDS011;3534;49.960;8.018;2024-02-23T07:11:01;2.83;;;1.80;;
6987;SDS011;3534;49.960;8.018;2024-02-23T07:13:28;2.70;;;1.13;;
6987;SDS011;3534;49.960;8.018;2024-02-23T07:15:57;3.67;;;1.30;;
6987;SDS011;3534;49.960;8.018;2024-02-23T07:18:24;4.20;;;1.20;;
6987;SDS011;3534;49.960;8.018;2024-02-23T07:20:51;5.30;;;1.47;;
6987;SDS011;3534;49.960;8.018;2024-02-23T07:23:17;5.83;;;1.83;;
6987;SDS011;3534;49.960;8.018;2024-02-23T07:25:44;4.90;;;1.40;;
6987;SDS011;3534;49.960;8.018;2024-02-23T07:28:11;3.83;;;1.50;;
6987;SDS011;3534;49.960;8.018;2024-02-23T07:30:39;7.93;;;1.13;;
6987;SDS011;3534;49.960;8.018;2024-02-23T07:33:07;3.70;;;1.40;;
6987;SDS011;3534;49.960;8.018;2024-02-23T07:35:34;5.27;;;2.07;;
6987;SDS011;3534;49.960;8.018;2024-02-23T07:38:00;3.37;;;2.17;;
6987;SDS011;3534;49.960;8.018;2024-02-23T07:40:27;5.80;;;2.20;;
6987;SDS011;3534;49.960;8.018;2024-02-23T07:42:54;7.17;;;2.30;;
6987;SDS011;3534;49.960;8.018;2024-02-23T07:45:20;3.10;;;1.80;;
6987;SDS011;3534;49.960;8.018;2024-02-23T07:47:47;5.17;;;1.47;;
6987;SDS011;3534;49.960;8.018;2024-02-23T07:50:15;7.27;;;3.20;;
6987;SDS011;3534;49.960;8.018;2024-02-23T07:52:43;8.97;;;3.30;;
6987;SDS011;3534;49.960;8.018;2024-02-23T07:55:10;6.50;;;1.80;;
6987;SDS011;3534;49.960;8.018;2024-02-23T07:57:37;5.17;;;1.10;;
6987;SDS011;3534;49.960;8.018;2024-02-23T08:00:05;3.40;;;1.33;;
6987;SDS011;3534;49.960;8.018;2024-02-23T08:02:34;2.10;;;1.00;;
6987;SDS011;3534;49.960;8.018;2024-02-23T08:05:01;5.80;;;1.67;;
6987;SDS011;3534;49.960;8.018;2024-02-23T08:07:29;12.30;;;1.60;;
6987;SDS011;3534;49.960;8.018;2024-02-23T08:09:56;4.43;;;1.57;;
6987;SDS011;3534;49.960;8.018;2024-02-23T08:12:23;2.13;;;1.03;;
6987;SDS011;3534;49.960;8.018;2024-02-23T08:14:50;5.13;;;1.47;;
6987;SDS011;3534;49.960;8.018;2024-02-23T08:17:18;8.80;;;1.70;;
6987;SDS011;3534;49.960;8.018;2024-02-23T08:19:45;5.63;;;1.30;;
6987;SDS011;3534;49.960;8.018;2024-02-23T08:22:12;4.63;;;1.20;;
6987;SDS011;3534;49.960;8.018;2024-02-23T08:24:40;4.73;;;0.87;;
6987;SDS011;3534;49.960;8.018;2024-02-23T08:27:07;4.27;;;1.40;;
6987;SDS011;3534;49.960;8.018;2024-02-23T08:29:33;4.03;;;1.10;;
6987;SDS011;3534;49.960;8.018;2024-02-23T08:32:04;3.90;;;1.30;;
6987;SDS011;3534;49.960;8.018;2024-02-23T08:34:31;6.53;;;1.20;;
6987;SDS011;3534;49.960;8.018;2024-02-23T08:36:59;7.13;;;1.47;;
6987;SDS011;3534;49.960;8.018;2024-02-23T08:39:26;5.80;;;1.43;;
6987;SDS011;3534;49.960;8.018;2024-02-23T08:41:55;2.43;;;1.00;;
6987;SDS011;3534;49.960;8.018;2024-02-23T08:44:21;4.13;;;1.20;;
6987;SDS011;3534;49.960;8.018;2024-02-23T08:46:48;5.90;;;1.30;;
6987;SDS011;3534;49.960;8.018;2024-02-23T08:49:14;7.50;;;1.27;;
6987;SDS011;3534;49.960;8.018;2024-02-23T08:51:41;5.00;;;0.90;;
6987;SDS011;3534;49.960;8.018;2024-02-23T08:54:08;2.60;;;1.60;;
6987;SDS011;3534;49.960;8.018;2024-02-23T08:56:36;6.17;;;1.40;;
6987;SDS011;3534;49.960;8.018;2024-02-23T08:59:04;4.80;;;1.40;;
6987;SDS011;3534;49.960;8.018;2024-02-23T09:01:31;4.03;;;1.20;;
6987;SDS011;3534;49.960;8.018;2024-02-23T09:03:58;10.10;;;1.13;;
6987;SDS011;3534;49.960;8.018;2024-02-23T09:06:25;4.47;;;1.10;;
6987;SDS011;3534;49.960;8.018;2024-02-23T09:08:51;2.57;;;1.20;;
6987;SDS011;3534;49.960;8.018;2024-02-23T09:11:18;4.93;;;1.50;;
6987;SDS011;3534;49.960;8.018;2024-02-23T09:13:45;8.23;;;1.07;;
6987;SDS011;3534;49.960;8.018;2024-02-23T09:16:13;9.57;;;1.50;;
6987;SDS011;3534;49.960;8.018;2024-02-23T09:18:39;5.77;;;1.57;;
6987;SDS011;3534;49.960;8.018;2024-02-23T09:21:06;5.60;;;1.47;;
6987;SDS011;3534;49.960;8.018;2024-02-23T09:23:33;3.73;;;0.97;;
6987;SDS011;3534;49.960;8.018;2024-02-23T09:25:59;12.77;;;1.43;;
6987;SDS011;3534;49.960;8.018;2024-02-23T09:28:26;4.40;;;1.10;;
6987;SDS011;3534;49.960;8.018;2024-02-23T09:30:53;12.13;;;2.13;;
6987;SDS011;3534;49.960;8.018;2024-02-23T09:33:21;6.63;;;1.97;;
6987;SDS011;3534;49.960;8.018;2024-02-23T09:35:48;6.60;;;1.60;;
6987;SDS011;3534;49.960;8.018;2024-02-23T09:38:14;5.40;;;1.80;;
6987;SDS011;3534;49.960;8.018;2024-02-23T09:40:41;4.77;;;1.10;;
6987;SDS011;3534;49.960;8.018;2024-02-23T09:43:08;4.63;;;1.50;;
6987;SDS011;3534;49.960;8.018;2024-02-23T09:45:36;8.40;;;1.80;;
6987;SDS011;3534;49.960;8.018;2024-02-23T09:48:04;9.77;;;1.43;;
6987;SDS011;3534;49.960;8.018;2024-02-23T09:50:34;5.17;;;1.03;;
6987;SDS011;3534;49.960;8.018;2024-02-23T09:53:01;6.17;;;1.47;;
6987;SDS011;3534;49.960;8.018;2024-02-23T09:55:33;3.83;;;1.27;;
6987;SDS011;3534;49.960;8.018;2024-02-23T09:58:00;6.20;;;1.10;;
6987;SDS011;3534;49.960;8.018;2024-02-23T10:00:28;5.03;;;0.90;;
6987;SDS011;3534;49.960;8.018;2024-02-23T10:02:56;4.50;;;1.20;;
6987;SDS011;3534;49.960;8.018;2024-02-23T10:05:25;5.70;;;1.70;;
6987;SDS011;3534;49.960;8.018;2024-02-23T10:07:57;5.67;;;2.77;;
6987;SDS011;3534;49.960;8.018;2024-02-23T10:10:24;7.07;;;1.37;;
6987;SDS011;3534;49.960;8.018;2024-02-23T10:12:55;10.33;;;2.37;;
6987;SDS011;3534;49.960;8.018;2024-02-23T10:15:21;4.80;;;2.17;;
6987;SDS011;3534;49.960;8.018;2024-02-23T10:17:48;5.90;;;2.03;;
6987;SDS011;3534;49.960;8.018;2024-02-23T10:20:15;5.67;;;2.60;;
6987;SDS011;3534;49.960;8.018;2024-02-23T10:22:42;5.20;;;1.40;;
6987;SDS011;3534;49.960;8.018;2024-02-23T10:25:10;8.30;;;2.17;;
6987;SDS011;3534;49.960;8.018;2024-02-23T10:27:37;7.67;;;1.40;;
6987;SDS011;3534;49.960;8.018;2024-02-23T10:30:06;8.97;;;1.30;;
6987;SDS011;3534;49.960;8.018;2024-02-23T10:32:36;7.93;;;1.30;;
6987;SDS011;3534;49.960;8.018;2024-02-23T10:35:04;2.60;;;1.10;;
6987;SDS011;3534;49.960;8.018;2024-02-23T10:37:37;1.97;;;1.00;;
6987;SDS011;3534;49.960;8.018;2024-02-23T10:40:04;3.57;;;1.30;;
6987;SDS011;3534;49.960;8.018;2024-02-23T10:42:36;1.67;;;1.07;;
6987;SDS011;3534;49.960;8.018;2024-02-23T10:45:05;7.20;;;1.10;;
6987;SDS011;3534;49.960;8.018;2024-02-23T10:47:33;3.73;;;1.00;;
6987;SDS011;3534;49.960;8.018;2024-02-23T10:50:01;2.70;;;0.90;;
6987;SDS011;3534;49.960;8.018;2024-02-23T10:52:28;5.87;;;1.10;;
6987;SDS011;3534;49.960;8.018;2024-02-23T10:54:55;4.80;;;1.33;;
6987;SDS011;3534;49.960;8.018;2024-02-23T10:57:23;3.57;;;1.00;;
6987;SDS011;3534;49.960;8.018;2024-02-23T10:59:52;3.63;;;0.97;;
6987;SDS011;3534;49.960;8.018;2024-02-23T11:02:19;6.23;;;1.10;;
6987;SDS011;3534;49.960;8.018;2024-02-23T11:04:48;6.67;;;1.10;;
6987;SDS011;3534;49.960;8.018;2024-02-23T11:07:18;5.30;;;1.20;;
6987;SDS011;3534;49.960;8.018;2024-02-23T11:09:48;3.53;;;0.90;;
6987;SDS011;3534;49.960;8.018;2024-02-23T11:12:21;3.67;;;0.90;;
6987;SDS011;3534;49.960;8.018;2024-02-23T11:14:51;2.80;;;0.90;;
6987;SDS011;3534;49.960;8.018;2024-02-23T11:17:23;2.83;;;1.10;;
6987;SDS011;3534;49.960;8.018;2024-02-23T11:19:53;4.30;;;1.30;;
6987;SDS011;3534;49.960;8.018;2024-02-23T11:22:24;12.90;;;1.23;;
6987;SDS011;3534;49.960;8.018;2024-02-23T11:24:52;4.23;;;0.90;;
6987;SDS011;3534;49.960;8.018;2024-02-23T11:27:19;3.47;;;0.80;;
6987;SDS011;3534;49.960;8.018;2024-02-23T11:29:46;5.40;;;1.20;;
6987;SDS011;3534;49.960;8.018;2024-02-23T11:32:15;1.53;;;0.60;;
6987;SDS011;3534;49.960;8.018;2024-02-23T11:34:53;2.50;;;0.80;;
6987;SDS011;3534;49.960;8.018;2024-02-23T11:37:21;1.57;;;0.60;;
6987;SDS011;3534;49.960;8.018;2024-02-23T11:39:48;1.33;;;0.80;;
6987;SDS011;3534;49.960;8.018;2024-02-23T11:42:15;1.83;;;1.23;;
6987;SDS011;3534;49.960;8.018;2024-02-23T11:44:43;4.30;;;1.20;;
6987;SDS011;3534;49.960;8.018;2024-02-23T11:47:10;4.70;;;0.60;;
6987;SDS011;3534;49.960;8.018;2024-02-23T11:49:38;2.43;;;0.90;;
6987;SDS011;3534;49.960;8.018;2024-02-23T11:52:05;5.87;;;1.00;;
6987;SDS011;3534;49.960;8.018;2024-02-23T11:54:32;5.87;;;0.90;;
6987;SDS011;3534;49.960;8.018;2024-02-23T11:56:59;2.80;;;0.80;;
6987;SDS011;3534;49.960;8.018;2024-02-23T11:59:26;2.60;;;0.97;;
6987;SDS011;3534;49.960;8.018;2024-02-23T12:01:53;5.30;;;1.57;;
6987;SDS011;3534;49.960;8.018;2024-02-23T12:04:20;4.20;;;0.80;;
6987;SDS011;3534;49.960;8.018;2024-02-23T12:06:48;3.47;;;1.20;;
6987;SDS011;3534;49.960;8.018;2024-02-23T12:09:15;2.20;;;1.03;;
6987;SDS011;3534;49.960;8.018;2024-02-23T12:11:42;8.40;;;1.80;;
6987;SDS011;3534;49.960;8.018;2024-02-23T12:14:09;9.60;;;1.80;;
6987;SDS011;3534;49.960;8.018;2024-02-23T12:16:36;3.30;;;1.20;;
6987;SDS011;3534;49.960;8.018;2024-02-23T12:19:03;2.83;;;1.10;;
6987;SDS011;3534;49.960;8.018;2024-02-23T12:21:30;4.47;;;1.20;;
6987;SDS011;3534;49.960;8.018;2024-02-23T12:24:03;4.07;;;0.93;;
6987;SDS011;3534;49.960;8.018;2024-02-23T12:26:31;4.73;;;1.47;;
6987;SDS011;3534;49.960;8.018;2024-02-23T12:28:59;5.00;;;0.90;;
6987;SDS011;3534;49.960;8.018;2024-02-23T12:31:27;3.17;;;1.23;;
6987;SDS011;3534;49.960;8.018;2024-02-23T12:33:56;4.33;;;1.20;;
6987;SDS011;3534;49.960;8.018;2024-02-23T12:36:23;6.17;;;1.83;;
6987;SDS011;3534;49.960;8.018;2024-02-23T12:38:50;8.43;;;1.30;;
6987;SDS011;3534;49.960;8.018;2024-02-23T12:41:18;2.53;;;1.03;;
6987;SDS011;3534;49.960;8.018;2024-02-23T12:43:45;4.67;;;1.17;;
6987;SDS011;3534;49.960;8.018;2024-02-23T12:46:12;2.10;;;0.93;;
6987;SDS011;3534;49.960;8.018;2024-02-23T12:48:39;3.13;;;1.03;;
6987;SDS011;3534;49.960;8.018;2024-02-23T12:51:05;3.10;;;1.10;;
6987;SDS011;3534;49.960;8.018;2024-02-23T12:53:33;3.37;;;1.17;;
6987;SDS011;3534;49.960;8.018;2024-02-23T12:56:01;2.40;;;1.37;;
6987;SDS011;3534;49.960;8.018;2024-02-23T12:58:30;7.00;;;1.50;;
6987;SDS011;3534;49.960;8.018;2024-02-23T13:00:57;2.97;;;0.90;;
6987;SDS011;3534;49.960;8.018;2024-02-23T13:03:24;3.57;;;1.00;;
6987;SDS011;3534;49.960;8.018;2024-02-23T13:05:51;2.87;;;1.07;;
6987;SDS011;3534;49.960;8.018;2024-02-23T13:08:18;3.57;;;1.13;;
6987;SDS011;3534;49.960;8.018;2024-02-23T13:10:45;2.20;;;0.90;;
6987;SDS011;3534;49.960;8.018;2024-02-23T13:13:11;3.07;;;1.10;;
6987;SDS011;3534;49.960;8.018;2024-02-23T13:15:41;2.73;;;0.97;;
6987;SDS011;3534;49.960;8.018;2024-02-23T13:18:07;1.50;;;1.00;;
6987;SDS011;3534;49.960;8.018;2024-02-23T13:20:34;2.67;;;1.13;;
6987;SDS011;3534;49.960;8.018;2024-02-23T13:23:01;1.93;;;0.70;;
6987;SDS011;3534;49.960;8.018;2024-02-23T13:25:28;3.33;;;1.23;;
6987;SDS011;3534;49.960;8.018;2024-02-23T13:27:55;6.00;;;1.13;;
6987;SDS011;3534;49.960;8.018;2024-02-23T13:30:21;4.30;;;0.70;;
6987;SDS011;3534;49.960;8.018;2024-02-23T13:32:49;5.43;;;1.27;;
6987;SDS011;3534;49.960;8.018;2024-02-23T13:35:16;3.10;;;1.10;;
6987;SDS011;3534;49.960;8.018;2024-02-23T13:37:43;5.00;;;1.50;;
6987;SDS011;3534;49.960;8.018;2024-02-23T13:40:09;5.70;;;1.00;;
6987;SDS011;3534;49.960;8.018;2024-02-23T13:42:37;4.57;;;1.13;;
6987;SDS011;3534;49.960;8.018;2024-02-23T13:45:05;4.20;;;1.00;;
6987;SDS011;3534;49.960;8.018;2024-02-23T13:47:33;4.00;;;1.10;;
6987;SDS011;3534;49.960;8.018;2024-02-23T13:50:01;3.83;;;0.90;;
6987;SDS011;3534;49.960;8.018;2024-02-23T13:52:28;2.63;;;1.40;;
6987;SDS011;3534;49.960;8.018;2024-02-23T13:54:55;3.07;;;1.20;;
6987;SDS011;3534;49.960;8.018;2024-02-23T13:57:22;3.50;;;1.00;;
6987;SDS011;3534;49.960;8.018;2024-02-23T13:59:49;3.67;;;1.23;;
6987;SDS011;3534;49.960;8.018;2024-02-23T14:02:15;5.97;;;1.70;;
6987;SDS011;3534;49.960;8.018;2024-02-23T14:04:43;1.63;;;0.80;;
6987;SDS011;3534;49.960;8.018;2024-02-23T14:07:12;2.80;;;0.83;;
6987;SDS011;3534;49.960;8.018;2024-02-23T14:09:39;5.20;;;1.27;;
6987;SDS011;3534;49.960;8.018;2024-02-23T14:12:05;8.23;;;1.63;;
6987;SDS011;3534;49.960;8.018;2024-02-23T14:14:33;3.77;;;0.90;;
6987;SDS011;3534;49.960;8.018;2024-02-23T14:16:59;2.90;;;1.20;;
6987;SDS011;3534;49.960;8.018;2024-02-23T14:19:26;3.60;;;1.57;;
6987;SDS011;3534;49.960;8.018;2024-02-23T14:21:53;2.73;;;1.10;;
6987;SDS011;3534;49.960;8.018;2024-02-23T14:24:21;3.53;;;1.20;;
6987;SDS011;3534;49.960;8.018;2024-02-23T14:26:47;3.10;;;1.10;;
6987;SDS011;3534;49.960;8.018;2024-02-23T14:29:14;3.70;;;1.13;;
6987;SDS011;3534;49.960;8.018;2024-02-23T14:31:42;4.07;;;1.03;;
6987;SDS011;3534;49.960;8.018;2024-02-23T14:34:09;3.13;;;1.60;;
6987;SDS011;3534;49.960;8.018;2024-02-23T14:36:36;4.87;;;1.37;;
6987;SDS011;3534;49.960;8.018;2024-02-23T14:39:02;4.20;;;1.27;;
6987;SDS011;3534;49.960;8.018;2024-02-23T14:41:31;1.70;;;1.10;;
6987;SDS011;3534;49.960;8.018;2024-02-23T14:43:58;1.83;;;0.80;;
6987;SDS011;3534;49.960;8.018;2024-02-23T14:46:25;3.90;;;1.20;;
6987;SDS011;3534;49.960;8.018;2024-02-23T14:48:51;2.27;;;0.73;;
6987;SDS011;3534;49.960;8.018;2024-02-23T14:51:18;1.87;;;0.83;;
6987;SDS011;3534;49.960;8.018;2024-02-23T14:53:45;5.40;;;1.10;;
6987;SDS011;3534;49.960;8.018;2024-02-23T14:56:12;1.57;;;0.87;;
6987;SDS011;3534;49.960;8.018;2024-02-23T14:58:40;2.03;;;0.90;;
6987;SDS011;3534;49.960;8.018;2024-02-23T15:01:07;6.13;;;1.10;;
6987;SDS011;3534;49.960;8.018;2024-02-23T15:03:33;6.43;;;0.90;;
6987;SDS011;3534;49.960;8.018;2024-02-23T15:06:00;1.60;;;0.90;;
6987;SDS011;3534;49.960;8.018;2024-02-23T15:08:28;0.97;;;0.73;;
6987;SDS011;3534;49.960;8.018;2024-02-23T15:10:54;2.10;;;0.63;;
6987;SDS011;3534;49.960;8.018;2024-02-23T15:13:22;3.53;;;1.10;;
6987;SDS011;3534;49.960;8.018;2024-02-23T15:15:50;2.50;;;1.20;;